FW0323 Weather Reports


Display with metric or nautical units.
time (UTC)temp
F
wind
direction
speed
MPH
gust
MPH
rain 1hr
in
rain 24hr
in
rain mn
in
humidity
%
barometer
mb
20220818173046 67 8 0.0 6.0 0.00 1.23 0.47 83 1009.2
20220818171540 67 342 0.0 3.0 0.00 1.23 0.47 85 1009.1
20220818170032 66 9 0.0 3.0 0.00 1.23 0.47 88 1008.9
20220818164530 65 11 0.0 1.0 0.00 1.27 0.47 88 1008.8
20220818163025 66 81 0.0 3.0 0.00 1.27 0.47 87 1008.6
20220818161525 66 314 1.0 5.0 0.00 1.27 0.47 85 1008.6
20220818160030 66 10 0.0 2.0 0.00 1.27 0.47 88 1008.4
20220818154518 65 17 0.0 3.0 0.00 1.29 0.47 88 1008.3
20220818153021 64 32 0.0 6.0 0.00 1.29 0.47 90 1008.2
20220818151513 64 313 0.0 4.0 0.00 1.29 0.47 92 1008.2
20220818150029 63 309 0.0 3.0 0.00 1.29 0.47 95 1008.2
20220818144511 62 171 0.0 2.0 0.00 1.29 0.47 96 1008.2
20220818143006 61 77 0.0 4.0 0.00 1.29 0.47 96 1008.2
20220818141505 61 42 0.0 1.0 0.01 1.29 0.47 96 1008.1
20220818140004 61 154 0.0 0.0 0.01 1.29 0.47 96 1008.3
20220818134502 60 2 0.0 1.0 0.01 1.29 0.47 96 1008.2
20220818133003 60 45 0.0 2.0 0.01 1.29 0.47 96 1008.2
20220818131603 60 290 0.0 4.0 0.00 1.28 0.46 96 1008.2
20220818130115 60 77 0.0 1.0 0.00 1.28 0.46 97 1008.3
20220818124601 60 124 0.0 1.0 0.00 1.28 0.46 97 1008.2
20220818123116 60 283 0.0 3.0 0.01 1.28 0.46 97 1008.1
20220818121653 60 12 0.0 1.0 0.04 1.28 0.46 97 1008.0
20220818120108 59 328 0.0 3.0 0.06 1.28 0.46 97 1008.0
20220818114555 59 224 0.0 2.0 0.07 1.28 0.46 97 1007.9
20220818113105 59 11 0.0 1.0 0.07 1.27 0.45 97 1007.9
20220818111656 59 293 0.0 2.0 0.08 1.25 0.43 97 1007.8
20220818110102 59 276 0.0 1.0 0.07 1.22 0.40 97 1007.8
20220818104551 59 94 0.0 1.0 0.07 1.21 0.39 97 1007.8
20220818103138 59 141 0.0 1.0 0.06 1.20 0.38 97 1007.7
20220818101606 59 119 0.0 1.0 0.04 1.17 0.35 97 1007.6
20220818100110 59 137 0.0 0.0 0.03 1.14 0.33 97 1007.7
20220818094604 59 107 0.0 1.0 0.06 1.13 0.32 97 1007.5
20220818093051 59 335 0.0 0.0 0.09 1.12 0.31 97 1007.5
20220818091646 59 136 0.0 0.0 0.11 1.12 0.31 97 1007.3
20220818090048 59 143 0.0 0.0 0.13 1.12 0.30 97 1007.4
20220818084554 59 79 0.0 0.0 0.11 1.08 0.26 97 1007.3
20220818083054 59 354 0.0 1.0 0.08 1.04 0.22 97 1007.4
20220818081542 59 15 0.0 1.0 0.05 1.01 0.19 97 1007.4
20220818080056 59 129 0.0 1.0 0.04 0.99 0.17 97 1007.5
20220818074540 59 329 0.0 2.0 0.03 0.97 0.15 97 1007.7
20220818073041 59 122 0.0 0.0 0.03 0.96 0.14 97 1007.8
20220818071537 59 270 0.0 0.0 0.04 0.96 0.14 97 1007.8
20220818070054 58 153 0.0 0.0 0.04 0.95 0.13 97 1007.9
20220818064606 58 303 0.0 0.0 0.05 0.94 0.12 96 1007.9
20220818063035 58 303 0.0 1.0 0.05 0.93 0.11 96 1008.0
20220818061534 58 193 0.0 0.0 0.05 0.92 0.10 96 1008.1
20220818060051 58 311 0.0 2.0 0.05 0.91 0.09 96 1008.2
20220818054533 58 119 0.0 0.0 0.04 0.89 0.07 96 1008.3
20220818053030 58 278 0.0 1.0 0.04 0.88 0.06 96 1008.4
20220818051535 58 300 0.0 1.0 0.05 0.87 0.05 96 1008.5
20220818050042 58 267 0.0 1.0 0.04 0.86 0.04 96 1008.6
20220818044538 58 249 0.0 1.0 0.07 0.85 0.03 96 1008.7
20220818043043 58 165 0.0 1.0 0.09 0.84 0.02 96 1008.8
20220818041528 58 187 0.0 0.0 0.09 0.82 0.00 96 1009.1
20220818040032 58 117 0.0 3.0 0.13 0.82 0.00 96 1009.2
20220818034544 58 172 0.0 1.0 0.11 0.77 0.77 96 1009.4
20220818033024 58 39 0.0 1.0 0.12 0.75 0.75 96 1009.6
20220818031518 58 248 0.0 2.0 0.12 0.73 0.73 96 1009.8
20220818030129 58 122 0.0 1.0 0.10 0.69 0.69 96 1010.0
20220818024525 58 127 0.0 1.0 0.12 0.66 0.66 96 1010.2
20220818023019 58 327 0.0 2.0 0.14 0.63 0.63 96 1010.4
20220818021511 59 264 0.0 6.0 0.13 0.61 0.61 96 1010.6
20220818020025 59 120 0.0 1.0 0.11 0.57 0.57 96 1010.9
20220818014507 59 79 0.0 1.0 0.06 0.53 0.53 96 1011.2
20220818013005 59 309 0.0 2.0 0.02 0.49 0.49 96 1011.4
20220818011503 59 140 0.0 1.0 0.01 0.48 0.48 96 1011.8
20220818010001 59 92 0.0 1.0 0.00 0.47 0.47 96 1011.8
20220818004610 59 273 0.0 1.0 0.01 0.48 0.47 96 1012.0
20220818003103 59 125 0.0 1.0 0.01 0.48 0.47 96 1012.1
20220818001615 59 2 0.0 2.0 0.01 0.48 0.47 96 1012.2
20220818000104 59 103 0.0 3.0 0.01 0.48 0.47 96 1012.2
20220817234647 59 316 0.0 2.0 0.00 0.47 0.46 96 1012.5
20220817233052 59 322 0.0 3.0 0.01 0.47 0.46 95 1012.7
20220817231556 59 343 0.0 1.0 0.01 0.47 0.46 95 1012.9
20220817230113 59 321 0.0 1.0 0.02 0.47 0.46 95 1013.0
20220817224555 59 3 0.0 3.0 0.03 0.47 0.46 95 1013.3
20220817223103 60 210 0.0 2.0 0.03 0.46 0.45 95 1013.3
20220817221549 60 301 0.0 2.0 0.04 0.46 0.45 95 1013.5
20220817220044 60 338 0.0 3.0 0.04 0.45 0.44 95 1013.7
20220817214542 61 231 0.0 2.0 0.04 0.44 0.43 95 1014.0
20220817213106 61 2 0.0 1.0 0.05 0.43 0.42 95 1014.3
20220817211556 60 306 0.0 2.0 0.05 0.42 0.41 95 1014.6
20220817210039 60 238 0.0 3.0 0.06 0.41 0.40 95 1014.7
20220817204531 60 335 0.0 5.0 0.07 0.40 0.39 95 1015.0
20220817203040 61 15 0.0 2.0 0.07 0.38 0.37 95 1015.2
20220817201529 61 302 0.0 2.0 0.08 0.37 0.36 95 1015.4
20220817200032 61 353 0.0 2.0 0.08 0.35 0.34 95 1015.7
20220817194539 61 223 0.0 5.0 0.08 0.33 0.32 95 1015.7
20220817193023 61 34 0.0 2.0 0.07 0.30 0.28 95 1016.0
20220817191539 61 330 0.0 2.0 0.07 0.28 0.27 95 1016.3
20220817190023 61 295 0.0 1.0 0.09 0.27 0.26 95 1016.7
20220817184518 61 27 0.0 0.0 0.10 0.25 0.24 95 1017.0
20220817183014 61 45 0.0 3.0 0.10 0.23 0.22 95 1017.4
20220817181514 61 345 0.0 3.0 0.10 0.21 0.20 94 1017.7
20220817180012 61 288 0.0 1.0 0.11 0.18 0.17 94 1017.9
20220817174510 61 276 0.0 0.0 0.10 0.15 0.14 94 1018.1